^^
No Wait Weather (KNEBELLE1) Station Historical Data
Daily Summary for January 15, 2019 Units:  English    Metric   Both
Daily Weekly Monthly Yearly Custom
  High: Low: Average:
Temperature: 33.7 °F 31.0 °F 32.3 °F
Dew Point: 31.9 °F 28.7 °F 30.7 °F
Humidity: 96% 90% 94%
Wind Speed: 11.0mph 0.0mph 0.5mph
Wind Gust: 11.0mph - -
Wind- - SSW
Pressure: 30.13 in 29.95 in -
Precipitation: 0.07 in    
Historical Graphs
 
 
Tabular Data for January 15, 2019
Time Temperature Dew Point Pressure Wind Wind Speed Wind Gust Humidity Rainfall Rate (Hourly) solar
00:04 32.7 °F 31.4 °F 30.13 in Calm   2.0 mph 95% 0.00 in WeatherCatV3.03B8 W/m2
00:09 32.7 °F 31.4 °F 30.13 in Calm     95% 0.00 in WeatherCatV3.03B8 W/m2
00:14 32.5 °F 31.2 °F 30.13 in Calm     95% 0.00 in WeatherCatV3.03B8 W/m2
00:19 32.5 °F 31.2 °F 30.13 in Calm     95% 0.00 in WeatherCatV3.03B8 W/m2
00:24 32.5 °F 31.2 °F 30.13 in Calm     95% 0.00 in WeatherCatV3.03B8 W/m2
00:29 32.5 °F 31.2 °F 30.12 in Calm   1.0 mph 95% 0.00 in WeatherCatV3.03B8 W/m2
00:34 32.5 °F 31.2 °F 30.12 in Calm     95% 0.00 in WeatherCatV3.03B8 W/m2
00:39 32.5 °F 31.2 °F 30.12 in Calm     95% 0.00 in WeatherCatV3.03B8 W/m2
00:44 32.5 °F 31.2 °F 30.11 in Calm     95% 0.00 in WeatherCatV3.03B8 W/m2
00:49 32.7 °F 31.4 °F 30.11 in Calm     95% 0.00 in WeatherCatV3.03B8 W/m2
00:54 32.7 °F 31.4 °F 30.11 in Calm   2.0 mph 95% 0.00 in WeatherCatV3.03B8 W/m2
00:59 32.7 °F 31.4 °F 30.11 in Calm   1.0 mph 95% 0.00 in WeatherCatV3.03B8 W/m2
01:04 32.7 °F 31.4 °F 30.11 in Calm     95% 0.00 in WeatherCatV3.03B8 W/m2
01:09 32.7 °F 31.4 °F 30.11 in Calm     95% 0.00 in WeatherCatV3.03B8 W/m2
01:14 32.8 °F 31.5 °F 30.11 in Calm     95% 0.00 in WeatherCatV3.03B8 W/m2
01:19 32.8 °F 31.5 °F 30.11 in Calm     95% 0.00 in WeatherCatV3.03B8 W/m2
01:24 32.7 °F 31.4 °F 30.11 in Calm   3.0 mph 95% 0.00 in WeatherCatV3.03B8 W/m2
01:29 32.7 °F 31.4 °F 30.11 in Calm   1.0 mph 95% 0.00 in WeatherCatV3.03B8 W/m2
01:34 32.7 °F 31.4 °F 30.11 in Calm     95% 0.00 in WeatherCatV3.03B8 W/m2
01:39 32.7 °F 31.4 °F 30.11 in Calm     95% 0.00 in WeatherCatV3.03B8 W/m2
01:44 32.7 °F 31.4 °F 30.11 in Calm     95% 0.00 in WeatherCatV3.03B8 W/m2
01:49 32.7 °F 31.4 °F 30.11 in Calm     95% 0.00 in WeatherCatV3.03B8 W/m2
01:54 32.7 °F 31.7 °F 30.11 in Calm     96% 0.00 in WeatherCatV3.03B8 W/m2
01:59 32.7 °F 31.7 °F 30.10 in Calm     96% 0.00 in WeatherCatV3.03B8 W/m2
02:04 32.8 °F 31.8 °F 30.10 in Calm     96% 0.00 in WeatherCatV3.03B8 W/m2
02:09 32.8 °F 31.8 °F 30.10 in Calm     96% 0.00 in WeatherCatV3.03B8 W/m2
02:14 32.8 °F 31.8 °F 30.11 in Calm     96% 0.00 in WeatherCatV3.03B8 W/m2
02:19 32.8 °F 31.8 °F 30.11 in Calm   3.0 mph 96% 0.00 in WeatherCatV3.03B8 W/m2
02:24 32.8 °F 31.8 °F 30.11 in Calm   2.0 mph 96% 0.00 in WeatherCatV3.03B8 W/m2
02:29 32.8 °F 31.8 °F 30.11 in Calm     96% 0.00 in WeatherCatV3.03B8 W/m2
02:34 32.8 °F 31.8 °F 30.11 in Calm     96% 0.00 in WeatherCatV3.03B8 W/m2
02:39 32.8 °F 31.8 °F 30.11 in Calm     96% 0.00 in WeatherCatV3.03B8 W/m2
02:44 32.8 °F 31.5 °F 30.11 in Calm     95% 0.00 in WeatherCatV3.03B8 W/m2
02:49 32.8 °F 31.5 °F 30.11 in Calm     95% 0.00 in WeatherCatV3.03B8 W/m2
02:54 32.8 °F 31.5 °F 30.11 in Calm     95% 0.00 in WeatherCatV3.03B8 W/m2
02:59 32.8 °F 31.5 °F 30.11 in Calm     95% 0.00 in WeatherCatV3.03B8 W/m2
03:04 32.7 °F 31.4 °F 30.11 in Calm     95% 0.00 in WeatherCatV3.03B8 W/m2
03:09 32.7 °F 31.4 °F 30.11 in Calm     95% 0.00 in WeatherCatV3.03B8 W/m2
03:14 32.7 °F 31.4 °F 30.11 in Calm     95% 0.00 in WeatherCatV3.03B8 W/m2
03:19 32.7 °F 31.4 °F 30.11 in Calm   2.0 mph 95% 0.00 in WeatherCatV3.03B8 W/m2
03:24 32.7 °F 31.4 °F 30.11 in Calm     95% 0.00 in WeatherCatV3.03B8 W/m2
03:29 32.7 °F 31.4 °F 30.10 in Calm     95% 0.00 in WeatherCatV3.03B8 W/m2
03:34 32.7 °F 31.4 °F 30.10 in Calm     95% 0.00 in WeatherCatV3.03B8 W/m2
03:39 32.7 °F 31.4 °F 30.10 in Calm   2.0 mph 95% 0.00 in WeatherCatV3.03B8 W/m2
03:44 32.7 °F 31.4 °F 30.09 in Calm   1.0 mph 95% 0.00 in WeatherCatV3.03B8 W/m2
03:49 32.7 °F 31.4 °F 30.09 in Calm     95% 0.00 in WeatherCatV3.03B8 W/m2
03:54 32.7 °F 31.4 °F 30.09 in Calm   4.0 mph 95% 0.00 in WeatherCatV3.03B8 W/m2
03:59 32.5 °F 31.2 °F 30.09 in Calm   4.0 mph 95% 0.00 in WeatherCatV3.03B8 W/m2
04:04 32.5 °F 31.2 °F 30.09 in Calm   1.0 mph 95% 0.00 in WeatherCatV3.03B8 W/m2
04:09 32.5 °F 31.2 °F 30.09 in Calm     95% 0.00 in WeatherCatV3.03B8 W/m2
04:14 32.5 °F 31.2 °F 30.08 in Calm     95% 0.00 in WeatherCatV3.03B8 W/m2
04:19 32.5 °F 31.2 °F 30.08 in Calm     95% 0.00 in WeatherCatV3.03B8 W/m2
04:24 32.5 °F 31.2 °F 30.08 in Calm     95% 0.00 in WeatherCatV3.03B8 W/m2
04:29 32.5 °F 31.2 °F 30.08 in Calm     95% 0.00 in WeatherCatV3.03B8 W/m2
04:34 32.4 °F 31.1 °F 30.08 in Calm     95% 0.00 in WeatherCatV3.03B8 W/m2
04:39 32.4 °F 31.1 °F 30.08 in Calm   1.0 mph 95% 0.00 in WeatherCatV3.03B8 W/m2
04:44 32.4 °F 31.4 °F 30.08 in Calm     96% 0.00 in WeatherCatV3.03B8 W/m2
04:49 32.4 °F 31.4 °F 30.08 in Calm     96% 0.00 in WeatherCatV3.03B8 W/m2
04:54 32.4 °F 31.4 °F 30.08 in Calm     96% 0.00 in WeatherCatV3.03B8 W/m2
04:59 32.4 °F 31.4 °F 30.07 in Calm     96% 0.00 in WeatherCatV3.03B8 W/m2
05:04 32.4 °F 31.4 °F 30.07 in Calm     96% 0.00 in WeatherCatV3.03B8 W/m2
05:09 32.4 °F 31.4 °F 30.07 in Calm   3.0 mph 96% 0.00 in WeatherCatV3.03B8 W/m2
05:14 32.4 °F 31.4 °F 30.07 in Calm   3.0 mph 96% 0.00 in WeatherCatV3.03B8 W/m2
05:19 32.2 °F 31.2 °F 30.07 in Calm     96% 0.00 in WeatherCatV3.03B8 W/m2
05:24 32.2 °F 31.2 °F 30.07 in Calm     96% 0.00 in WeatherCatV3.03B8 W/m2
05:29 32.2 °F 31.2 °F 30.07 in Calm     96% 0.00 in WeatherCatV3.03B8 W/m2
05:34 32.2 °F 31.2 °F 30.07 in Calm     96% 0.00 in WeatherCatV3.03B8 W/m2
05:39 32.1 °F 31.1 °F 30.07 in Calm     96% 0.00 in WeatherCatV3.03B8 W/m2
05:44 32.1 °F 31.1 °F 30.07 in Calm     96% 0.00 in WeatherCatV3.03B8 W/m2
05:49 32.1 °F 31.1 °F 30.07 in Calm   4.0 mph 96% 0.00 in WeatherCatV3.03B8 W/m2
05:54 32.1 °F 31.1 °F 30.07 in Calm   1.0 mph 96% 0.00 in WeatherCatV3.03B8 W/m2
05:59 32.1 °F 31.1 °F 30.06 in Calm   2.0 mph 96% 0.00 in WeatherCatV3.03B8 W/m2
06:04 32.1 °F 31.1 °F 30.06 in Calm     96% 0.00 in WeatherCatV3.03B8 W/m2
06:09 32.1 °F 31.1 °F 30.06 in Calm   2.0 mph 96% 0.00 in WeatherCatV3.03B8 W/m2
06:14 32.1 °F 31.1 °F 30.06 in Calm     96% 0.00 in WeatherCatV3.03B8 W/m2
06:19 32.1 °F 31.1 °F 30.06 in Calm   4.0 mph 96% 0.00 in WeatherCatV3.03B8 W/m2
06:24 32.1 °F 31.1 °F 30.06 in Calm     96% 0.00 in WeatherCatV3.03B8 W/m2
06:29 32.1 °F 31.1 °F 30.06 in Calm     96% 0.00 in WeatherCatV3.03B8 W/m2
06:34 32.1 °F 31.1 °F 30.06 in SSW 1.0 mph 3.0 mph 96% 0.00 in WeatherCatV3.03B8 W/m2
06:39 32.1 °F 31.1 °F 30.06 in Calm     96% 0.00 in WeatherCatV3.03B8 W/m2
06:44 32.1 °F 31.1 °F 30.05 in Calm     96% 0.00 in WeatherCatV3.03B8 W/m2
06:49 31.9 °F 30.9 °F 30.05 in Calm     96% 0.00 in WeatherCatV3.03B8 W/m2
06:54 31.9 °F 30.9 °F 30.05 in Calm   4.0 mph 96% 0.00 in WeatherCatV3.03B8 W/m2
06:59 31.9 °F 30.9 °F 30.05 in Calm     96% 0.00 in WeatherCatV3.03B8 W/m2
07:04 31.9 °F 30.9 °F 30.05 in Calm     96% 0.00 in WeatherCatV3.03B8 W/m2
07:09 31.9 °F 30.9 °F 30.05 in SSW 1.0 mph 1.0 mph 96% 0.00 in WeatherCatV3.03B8 W/m2
07:14 31.9 °F 30.9 °F 30.05 in Calm   2.0 mph 96% 0.00 in WeatherCatV3.03B8 W/m2
07:19 31.9 °F 30.9 °F 30.05 in Calm     96% 0.00 in WeatherCatV3.03B8 W/m2
07:24 31.9 °F 30.9 °F 30.05 in SSW 2.0 mph 2.0 mph 96% 0.00 in WeatherCatV3.03B8 W/m2
07:29 31.9 °F 30.9 °F 30.05 in Calm     96% 0.00 in WeatherCatV3.03B8 W/m2
07:34 31.9 °F 30.9 °F 30.05 in Calm   1.0 mph 96% 0.00 in WeatherCatV3.03B8 W/m2
07:39 31.9 °F 30.9 °F 30.05 in Calm     96% 0.00 in WeatherCatV3.03B8 W/m2
07:44 32.1 °F 31.1 °F 30.05 in Calm     96% 0.00 in WeatherCatV3.03B8 W/m2
07:49 32.1 °F 31.1 °F 30.05 in Calm     96% 0.00 in WeatherCatV3.03B8 W/m2
07:54 31.9 °F 30.9 °F 30.05 in Calm     96% 0.00 in WeatherCatV3.03B8 W/m2
07:59 31.9 °F 30.9 °F 30.05 in Calm   3.0 mph 96% 0.00 in WeatherCatV3.03B8 W/m2
08:04 31.9 °F 30.9 °F 30.05 in SSW 1.0 mph 1.0 mph 96% 0.00 in WeatherCatV3.03B8 W/m2
08:09 31.9 °F 30.9 °F 30.05 in SSW 4.0 mph 4.0 mph 96% 0.00 in WeatherCatV3.03B8 W/m2
08:14 31.8 °F 30.8 °F 30.05 in Calm     96% 0.00 in WeatherCatV3.03B8 W/m2
08:19 31.8 °F 30.8 °F 30.05 in Calm     96% 0.00 in WeatherCatV3.03B8 W/m2
08:24 31.8 °F 30.8 °F 30.05 in Calm   1.0 mph 96% 0.00 in WeatherCatV3.03B8 W/m2
08:29 31.8 °F 30.8 °F 30.05 in Calm     96% 0.00 in WeatherCatV3.03B8 W/m2
08:34 31.8 °F 30.8 °F 30.05 in SSW 1.0 mph 3.0 mph 96% 0.00 in WeatherCatV3.03B8 W/m2
08:39 31.8 °F 30.8 °F 30.05 in Calm   4.0 mph 96% 0.00 in WeatherCatV3.03B8 W/m2
08:44 31.8 °F 30.8 °F 30.05 in Calm   3.0 mph 96% 0.00 in WeatherCatV3.03B8 W/m2
08:49 31.8 °F 30.8 °F 30.05 in Calm   5.0 mph 96% 0.00 in WeatherCatV3.03B8 W/m2
08:54 31.6 °F 30.6 °F 30.05 in Calm   1.0 mph 96% 0.00 in WeatherCatV3.03B8 W/m2
08:59 31.6 °F 30.6 °F 30.05 in Calm     96% 0.00 in WeatherCatV3.03B8 W/m2
09:04 31.6 °F 30.6 °F 30.05 in SW 3.0 mph 3.0 mph 96% 0.00 in WeatherCatV3.03B8 W/m2
09:09 31.6 °F 30.6 °F 30.05 in Calm   1.0 mph 96% 0.00 in WeatherCatV3.03B8 W/m2
09:14 31.8 °F 30.8 °F 30.05 in SW 1.0 mph 4.0 mph 96% 0.00 in WeatherCatV3.03B8 W/m2
09:19 31.6 °F 30.6 °F 30.05 in Calm   2.0 mph 96% 0.00 in WeatherCatV3.03B8 W/m2
09:24 31.6 °F 30.6 °F 30.05 in Calm   1.0 mph 96% 0.00 in WeatherCatV3.03B8 W/m2
09:29 31.5 °F 30.5 °F 30.05 in Calm   4.0 mph 96% 0.00 in WeatherCatV3.03B8 W/m2
09:34 31.5 °F 30.5 °F 30.05 in Calm   2.0 mph 96% 0.00 in WeatherCatV3.03B8 W/m2
09:39 31.5 °F 30.5 °F 30.05 in WSW 2.0 mph 7.0 mph 96% 0.00 in WeatherCatV3.03B8 W/m2
09:44 31.5 °F 30.5 °F 30.05 in WSW 3.0 mph 6.0 mph 96% 0.00 in WeatherCatV3.03B8 W/m2
09:49 31.6 °F 30.6 °F 30.05 in Calm   5.0 mph 96% 0.00 in WeatherCatV3.03B8 W/m2
09:54 31.6 °F 30.6 °F 30.05 in SW 1.0 mph 4.0 mph 96% 0.00 in WeatherCatV3.03B8 W/m2
09:59 31.8 °F 30.8 °F 30.05 in Calm   3.0 mph 96% 0.00 in WeatherCatV3.03B8 W/m2
10:04 31.9 °F 30.9 °F 30.05 in SW 4.0 mph 5.0 mph 96% 0.00 in WeatherCatV3.03B8 W/m2
10:09 31.9 °F 30.9 °F 30.05 in Calm   6.0 mph 96% 0.00 in WeatherCatV3.03B8 W/m2
10:14 31.9 °F 30.9 °F 30.05 in Calm   4.0 mph 96% 0.00 in WeatherCatV3.03B8 W/m2
10:19 32.1 °F 31.1 °F 30.05 in SW 4.0 mph 4.0 mph 96% 0.00 in WeatherCatV3.03B8 W/m2
10:24 32.2 °F 31.2 °F 30.05 in Calm   2.0 mph 96% 0.00 in WeatherCatV3.03B8 W/m2
10:29 32.4 °F 31.4 °F 30.06 in South 1.0 mph 3.0 mph 96% 0.00 in WeatherCatV3.03B8 W/m2
10:34 32.4 °F 31.4 °F 30.06 in Calm   5.0 mph 96% 0.00 in WeatherCatV3.03B8 W/m2
10:39 32.4 °F 31.4 °F 30.06 in Calm   2.0 mph 96% 0.00 in WeatherCatV3.03B8 W/m2
10:44 32.5 °F 31.5 °F 30.06 in Calm   7.0 mph 96% 0.00 in WeatherCatV3.03B8 W/m2
10:49 32.5 °F 31.5 °F 30.06 in WSW 3.0 mph 4.0 mph 96% 0.00 in WeatherCatV3.03B8 W/m2
10:54 32.5 °F 31.5 °F 30.06 in SSW 3.0 mph 3.0 mph 96% 0.00 in WeatherCatV3.03B8 W/m2
10:59 32.5 °F 31.5 °F 30.05 in WSW 11.0 mph 11.0 mph 96% 0.00 in WeatherCatV3.03B8 W/m2
11:04 32.5 °F 31.5 °F 30.05 in South 2.0 mph 3.0 mph 96% 0.00 in WeatherCatV3.03B8 W/m2
11:09 32.5 °F 31.5 °F 30.05 in SSW 1.0 mph 4.0 mph 96% 0.00 in WeatherCatV3.03B8 W/m2
11:14 32.7 °F 31.7 °F 30.05 in Calm     96% 0.00 in WeatherCatV3.03B8 W/m2
11:19 32.7 °F 31.7 °F 30.05 in WSW 4.0 mph 6.0 mph 96% 0.00 in WeatherCatV3.03B8 W/m2
11:24 32.7 °F 31.4 °F 30.05 in SW 3.0 mph 6.0 mph 95% 0.00 in WeatherCatV3.03B8 W/m2
11:29 32.7 °F 31.4 °F 30.04 in Calm   4.0 mph 95% 0.00 in WeatherCatV3.03B8 W/m2
11:34 32.7 °F 31.4 °F 30.04 in Calm   6.0 mph 95% 0.00 in WeatherCatV3.03B8 W/m2
11:39 32.8 °F 31.5 °F 30.04 in South 3.0 mph 4.0 mph 95% 0.00 in WeatherCatV3.03B8 W/m2
11:44 32.8 °F 31.5 °F 30.03 in SW 1.0 mph 4.0 mph 95% 0.00 in WeatherCatV3.03B8 W/m2
11:49 32.8 °F 31.5 °F 30.03 in SSE 1.0 mph 2.0 mph 95% 0.00 in WeatherCatV3.03B8 W/m2
11:54 32.9 °F 31.6 °F 30.03 in Calm   4.0 mph 95% 0.00 in WeatherCatV3.03B8 W/m2
11:59 32.9 °F 31.6 °F 30.02 in SSW 1.0 mph 3.0 mph 95% 0.00 in WeatherCatV3.03B8 W/m2
12:04 32.9 °F 31.6 °F 30.02 in Calm   2.0 mph 95% 0.00 in WeatherCatV3.03B8 W/m2
12:09 33.1 °F 31.8 °F 30.02 in Calm   5.0 mph 95% 0.00 in WeatherCatV3.03B8 W/m2
12:14 33.1 °F 31.8 °F 30.01 in Calm     95% 0.00 in WeatherCatV3.03B8 W/m2
12:19 33.2 °F 31.9 °F 30.01 in Calm   1.0 mph 95% 0.00 in WeatherCatV3.03B8 W/m2
12:24 33.2 °F 31.9 °F 30.01 in Calm     95% 0.00 in WeatherCatV3.03B8 W/m2
12:29 33.2 °F 31.7 °F 30.00 in WSW 1.0 mph 5.0 mph 94% 0.00 in WeatherCatV3.03B8 W/m2
12:34 33.2 °F 31.7 °F 30.00 in SSE 1.0 mph 3.0 mph 94% 0.00 in WeatherCatV3.03B8 W/m2
12:39 33.2 °F 31.7 °F 30.00 in Calm   3.0 mph 94% 0.00 in WeatherCatV3.03B8 W/m2
12:44 33.2 °F 31.7 °F 30.00 in SSE 2.0 mph 4.0 mph 94% 0.00 in WeatherCatV3.03B8 W/m2
12:49 33.2 °F 31.7 °F 30.00 in SSW 3.0 mph 3.0 mph 94% 0.00 in WeatherCatV3.03B8 W/m2
12:54 33.2 °F 31.7 °F 30.00 in Calm   3.0 mph 94% 0.00 in WeatherCatV3.03B8 W/m2
12:59 33.2 °F 31.7 °F 29.99 in Calm   4.0 mph 94% 0.00 in WeatherCatV3.03B8 W/m2
13:04 33.4 °F 31.6 °F 29.99 in Calm   4.0 mph 93% 0.00 in WeatherCatV3.03B8 W/m2
13:09 33.4 °F 31.6 °F 29.99 in Calm   6.0 mph 93% 0.00 in WeatherCatV3.03B8 W/m2
13:14 33.2 °F 31.4 °F 29.98 in Calm     93% 0.00 in WeatherCatV3.03B8 W/m2
13:19 33.4 °F 31.6 °F 29.98 in Calm   3.0 mph 93% 0.00 in WeatherCatV3.03B8 W/m2
13:24 33.5 °F 31.7 °F 29.98 in SW 4.0 mph 4.0 mph 93% 0.00 in WeatherCatV3.03B8 W/m2
13:29 33.4 °F 31.3 °F 29.97 in SW 6.0 mph 7.0 mph 92% 0.00 in WeatherCatV3.03B8 W/m2
13:34 33.4 °F 31.3 °F 29.97 in WSW 2.0 mph 6.0 mph 92% 0.00 in WeatherCatV3.03B8 W/m2
13:39 33.5 °F 31.4 °F 29.97 in SW 1.0 mph 1.0 mph 92% 0.00 in WeatherCatV3.03B8 W/m2
13:44 33.7 °F 31.6 °F 29.96 in SW 1.0 mph 1.0 mph 92% 0.00 in WeatherCatV3.03B8 W/m2
13:49 33.5 °F 31.4 °F 29.96 in SSW 5.0 mph 5.0 mph 92% 0.00 in WeatherCatV3.03B8 W/m2
13:54 33.5 °F 31.4 °F 29.96 in Calm   4.0 mph 92% 0.00 in WeatherCatV3.03B8 W/m2
13:59 33.5 °F 31.4 °F 29.95 in SW 4.0 mph 4.0 mph 92% 0.00 in WeatherCatV3.03B8 W/m2
14:04 33.5 °F 31.4 °F 29.95 in Calm   4.0 mph 92% 0.00 in WeatherCatV3.03B8 W/m2
14:09 33.7 °F 31.4 °F 29.95 in SW 2.0 mph 6.0 mph 91% 0.00 in WeatherCatV3.03B8 W/m2
14:14 33.5 °F 31.2 °F 29.96 in Calm   3.0 mph 91% 0.00 in WeatherCatV3.03B8 W/m2
14:19 33.4 °F 31.1 °F 29.96 in WSW 2.0 mph 5.0 mph 91% 0.00 in WeatherCatV3.03B8 W/m2
14:24 33.4 °F 31.1 °F 29.96 in Calm   5.0 mph 91% 0.00 in WeatherCatV3.03B8 W/m2
14:29 33.5 °F 31.2 °F 29.95 in Calm   5.0 mph 91% 0.00 in WeatherCatV3.03B8 W/m2
14:34 33.5 °F 31.2 °F 29.95 in Calm   3.0 mph 91% 0.00 in WeatherCatV3.03B8 W/m2
14:39 33.4 °F 31.1 °F 29.95 in SW 1.0 mph 4.0 mph 91% 0.00 in WeatherCatV3.03B8 W/m2
14:44 33.2 °F 30.9 °F 29.95 in Calm   4.0 mph 91% 0.00 in WeatherCatV3.03B8 W/m2
14:49 33.2 °F 30.9 °F 29.95 in Calm     91% 0.00 in WeatherCatV3.03B8 W/m2
14:54 33.2 °F 31.1 °F 29.95 in South 1.0 mph 3.0 mph 92% 0.00 in WeatherCatV3.03B8 W/m2
14:59 33.2 °F 31.1 °F 29.95 in SW 4.0 mph 4.0 mph 92% 0.00 in WeatherCatV3.03B8 W/m2
15:04 33.2 °F 31.1 °F 29.95 in Calm   4.0 mph 92% 0.00 in WeatherCatV3.03B8 W/m2
15:09 33.4 °F 31.3 °F 29.95 in Calm     92% 0.00 in WeatherCatV3.03B8 W/m2
15:14 33.4 °F 31.3 °F 29.95 in Calm   3.0 mph 92% 0.00 in WeatherCatV3.03B8 W/m2
15:19 33.4 °F 31.1 °F 29.95 in SSE 1.0 mph 5.0 mph 91% 0.00 in WeatherCatV3.03B8 W/m2
15:24 33.2 °F 31.1 °F 29.95 in Calm     92% 0.00 in WeatherCatV3.03B8 W/m2
15:29 33.1 °F 31.0 °F 29.95 in SW 2.0 mph 3.0 mph 92% 0.00 in WeatherCatV3.03B8 W/m2
15:34 33.2 °F 31.1 °F 29.95 in Calm     92% 0.00 in WeatherCatV3.03B8 W/m2
15:39 33.1 °F 31.0 °F 29.95 in Calm     92% 0.00 in WeatherCatV3.03B8 W/m2
15:44 33.1 °F 31.0 °F 29.95 in Calm     92% 0.00 in WeatherCatV3.03B8 W/m2
15:49 32.9 °F 30.6 °F 29.95 in SSW 3.0 mph 5.0 mph 91% 0.00 in WeatherCatV3.03B8 W/m2
15:54 32.8 °F 30.7 °F 29.95 in Calm   3.0 mph 92% 0.00 in WeatherCatV3.03B8 W/m2
15:59 32.8 °F 30.7 °F 29.95 in Calm     92% 0.00 in WeatherCatV3.03B8 W/m2
16:04 32.8 °F 30.7 °F 29.95 in Calm     92% 0.00 in WeatherCatV3.03B8 W/m2
16:09 32.9 °F 30.8 °F 29.95 in Calm     92% 0.00 in WeatherCatV3.03B8 W/m2
16:14 32.9 °F 30.6 °F 29.95 in Calm   3.0 mph 91% 0.00 in WeatherCatV3.03B8 W/m2
16:19 32.8 °F 30.5 °F 29.95 in Calm     91% 0.00 in WeatherCatV3.03B8 W/m2
16:24 32.8 °F 30.5 °F 29.95 in Calm   2.0 mph 91% 0.00 in WeatherCatV3.03B8 W/m2
16:29 32.8 °F 30.5 °F 29.97 in Calm     91% 0.00 in WeatherCatV3.03B8 W/m2
16:34 32.7 °F 30.4 °F 29.97 in Calm     91% 0.00 in WeatherCatV3.03B8 W/m2
16:39 32.7 °F 30.4 °F 29.97 in Calm     91% 0.00 in WeatherCatV3.03B8 W/m2
16:44 32.5 °F 30.2 °F 29.98 in Calm     91% 0.00 in WeatherCatV3.03B8 W/m2
16:49 32.5 °F 30.2 °F 29.98 in Calm     91% 0.00 in WeatherCatV3.03B8 W/m2
16:54 32.4 °F 30.1 °F 29.98 in SW 4.0 mph 4.0 mph 91% 0.00 in WeatherCatV3.03B8 W/m2
16:59 32.4 °F 30.1 °F 29.98 in Calm     91% 0.00 in WeatherCatV3.03B8 W/m2
17:04 32.2 °F 29.9 °F 29.98 in Calm     91% 0.00 in WeatherCatV3.03B8 W/m2
17:09 32.2 °F 29.9 °F 29.98 in Calm     91% 0.00 in WeatherCatV3.03B8 W/m2
17:14 32.2 °F 30.1 °F 29.98 in Calm     92% 0.00 in WeatherCatV3.03B8 W/m2
17:19 32.4 °F 30.3 °F 29.98 in Calm   1.0 mph 92% 0.00 in WeatherCatV3.03B8 W/m2
17:24 32.4 °F 30.1 °F 29.98 in WNW 1.0 mph 2.0 mph 91% 0.00 in WeatherCatV3.03B8 W/m2
17:29 32.4 °F 30.1 °F 29.98 in Calm     91% 0.00 in WeatherCatV3.03B8 W/m2
17:34 32.2 °F 29.9 °F 29.98 in Calm     91% 0.23 in WeatherCatV3.03B8 W/m2
17:39 32.2 °F 29.9 °F 29.98 in Calm   2.0 mph 91% 0.08 in WeatherCatV3.03B8 W/m2
17:44 32.2 °F 29.9 °F 29.98 in Calm   1.0 mph 91% 0.05 in WeatherCatV3.03B8 W/m2
17:49 32.2 °F 29.9 °F 29.98 in Calm   2.0 mph 91% 0.00 in WeatherCatV3.03B8 W/m2
17:54 32.2 °F 29.9 °F 29.98 in West 1.0 mph 2.0 mph 91% 0.00 in WeatherCatV3.03B8 W/m2
17:59 31.9 °F 29.3 °F 29.99 in Calm   2.0 mph 90% 0.00 in WeatherCatV3.03B8 W/m2
18:04 31.9 °F 29.3 °F 29.99 in Calm     90% 0.00 in WeatherCatV3.03B8 W/m2
18:09 31.8 °F 29.2 °F 29.99 in Calm     90% 0.00 in WeatherCatV3.03B8 W/m2
18:14 31.8 °F 29.2 °F 30.00 in Calm     90% 0.00 in WeatherCatV3.03B8 W/m2
18:19 31.8 °F 29.2 °F 30.00 in Calm     90% 0.00 in WeatherCatV3.03B8 W/m2
18:24 31.6 °F 29.0 °F 30.00 in Calm   1.0 mph 90% 0.00 in WeatherCatV3.03B8 W/m2
18:29 31.6 °F 29.0 °F 30.00 in Calm     90% 0.00 in WeatherCatV3.03B8 W/m2
18:34 31.8 °F 29.2 °F 30.00 in Calm     90% 0.00 in WeatherCatV3.03B8 W/m2
18:39 31.6 °F 29.0 °F 30.00 in Calm     90% 0.00 in WeatherCatV3.03B8 W/m2
18:44 31.6 °F 29.3 °F 30.00 in Calm     91% 0.00 in WeatherCatV3.03B8 W/m2
18:49 31.8 °F 29.5 °F 30.00 in Calm     91% 0.00 in WeatherCatV3.03B8 W/m2
18:54 31.8 °F 29.5 °F 30.00 in Calm   1.0 mph 91% 0.00 in WeatherCatV3.03B8 W/m2
18:59 31.8 °F 29.5 °F 30.01 in Calm     91% 0.00 in WeatherCatV3.03B8 W/m2
19:04 31.8 °F 29.5 °F 30.01 in Calm     91% 0.00 in WeatherCatV3.03B8 W/m2
19:09 31.8 °F 29.5 °F 30.01 in Calm     91% 0.00 in WeatherCatV3.03B8 W/m2
19:14 31.8 °F 29.5 °F 30.02 in Calm     91% 0.00 in WeatherCatV3.03B8 W/m2
19:19 31.8 °F 29.5 °F 30.02 in Calm     91% 0.00 in WeatherCatV3.03B8 W/m2
19:24 31.8 °F 29.5 °F 30.02 in Calm     91% 0.00 in WeatherCatV3.03B8 W/m2
19:29 31.8 °F 29.5 °F 30.02 in Calm     91% 0.00 in WeatherCatV3.03B8 W/m2
19:34 31.6 °F 29.3 °F 30.02 in Calm     91% 0.00 in WeatherCatV3.03B8 W/m2
19:39 31.6 °F 29.3 °F 30.02 in Calm     91% 0.00 in WeatherCatV3.03B8 W/m2
19:44 31.6 °F 29.3 °F 30.02 in Calm     91% 0.00 in WeatherCatV3.03B8 W/m2
19:49 31.5 °F 29.2 °F 30.02 in Calm     91% 0.00 in WeatherCatV3.03B8 W/m2
19:54 31.5 °F 29.2 °F 30.02 in Calm     91% 0.00 in WeatherCatV3.03B8 W/m2
19:59 31.5 °F 29.2 °F 30.03 in Calm     91% 0.00 in WeatherCatV3.03B8 W/m2
20:04 31.3 °F 29.0 °F 30.03 in Calm     91% 0.00 in WeatherCatV3.03B8 W/m2
20:09 31.3 °F 29.2 °F 30.03 in Calm   1.0 mph 92% 0.00 in WeatherCatV3.03B8 W/m2
20:14 31.3 °F 29.2 °F 30.03 in Calm     92% 0.00 in WeatherCatV3.03B8 W/m2
20:19 31.3 °F 29.2 °F 30.03 in Calm     92% 0.00 in WeatherCatV3.03B8 W/m2
20:24 31.3 °F 29.2 °F 30.03 in Calm   2.0 mph 92% 0.00 in WeatherCatV3.03B8 W/m2
20:29 31.3 °F 29.5 °F 30.03 in Calm     93% 0.00 in WeatherCatV3.03B8 W/m2
20:34 31.3 °F 29.5 °F 30.03 in Calm     93% 0.00 in WeatherCatV3.03B8 W/m2
20:39 31.3 °F 29.5 °F 30.03 in Calm     93% 0.00 in WeatherCatV3.03B8 W/m2
20:44 31.2 °F 29.4 °F 30.03 in Calm     93% 0.00 in WeatherCatV3.03B8 W/m2
20:49 31.2 °F 29.4 °F 30.03 in Calm     93% 0.00 in WeatherCatV3.03B8 W/m2
20:54 31.2 °F 29.4 °F 30.03 in Calm     93% 0.00 in WeatherCatV3.03B8 W/m2
20:59 31.2 °F 29.7 °F 30.03 in Calm     94% 0.00 in WeatherCatV3.03B8 W/m2
21:04 31.2 °F 29.7 °F 30.03 in Calm     94% 0.00 in WeatherCatV3.03B8 W/m2
21:09 31.2 °F 29.7 °F 30.03 in Calm     94% 0.00 in WeatherCatV3.03B8 W/m2
21:14 31.0 °F 29.5 °F 30.04 in Calm     94% 0.00 in WeatherCatV3.03B8 W/m2
21:19 31.0 °F 29.5 °F 30.04 in Calm     94% 0.00 in WeatherCatV3.03B8 W/m2
21:24 31.0 °F 29.5 °F 30.04 in Calm     94% 0.00 in WeatherCatV3.03B8 W/m2
21:29 31.0 °F 29.5 °F 30.05 in Calm     94% 0.00 in WeatherCatV3.03B8 W/m2
21:34 31.0 °F 29.7 °F 30.05 in Calm     95% 0.00 in WeatherCatV3.03B8 W/m2
21:39 31.0 °F 29.7 °F 30.05 in Calm     95% 0.00 in WeatherCatV3.03B8 W/m2
21:44 31.0 °F 29.7 °F 30.05 in Calm     95% 0.00 in WeatherCatV3.03B8 W/m2
21:49 31.2 °F 29.9 °F 30.05 in Calm     95% 0.00 in WeatherCatV3.03B8 W/m2
21:54 31.2 °F 29.9 °F 30.05 in Calm     95% 0.00 in WeatherCatV3.03B8 W/m2
21:59 31.2 °F 29.9 °F 30.05 in Calm   1.0 mph 95% 0.00 in WeatherCatV3.03B8 W/m2
22:04 31.2 °F 29.9 °F 30.05 in Calm     95% 0.00 in WeatherCatV3.03B8 W/m2
22:09 31.3 °F 30.0 °F 30.05 in Calm     95% 0.00 in WeatherCatV3.03B8 W/m2
22:14 31.3 °F 30.0 °F 30.05 in Calm     95% 0.00 in WeatherCatV3.03B8 W/m2
22:19 31.3 °F 30.3 °F 30.05 in Calm     96% 0.00 in WeatherCatV3.03B8 W/m2
22:24 31.5 °F 30.5 °F 30.05 in Calm     96% 0.00 in WeatherCatV3.03B8 W/m2
22:29 31.5 °F 30.5 °F 30.07 in West 1.0 mph 2.0 mph 96% 0.00 in WeatherCatV3.03B8 W/m2
22:34 31.5 °F 30.5 °F 30.07 in Calm     96% 0.00 in WeatherCatV3.03B8 W/m2
22:39 31.5 °F 30.5 °F 30.07 in Calm   1.0 mph 96% 0.00 in WeatherCatV3.03B8 W/m2
22:44 31.5 °F 30.5 °F 30.07 in NNE 3.0 mph 4.0 mph 96% 0.00 in WeatherCatV3.03B8 W/m2
22:49 31.5 °F 30.5 °F 30.07 in Calm   2.0 mph 96% 0.00 in WeatherCatV3.03B8 W/m2
22:54 31.5 °F 30.2 °F 30.07 in North 3.0 mph 3.0 mph 95% 0.00 in WeatherCatV3.03B8 W/m2
22:59 31.6 °F 30.3 °F 30.07 in NNW 3.0 mph 4.0 mph 95% 0.00 in WeatherCatV3.03B8 W/m2
23:04 31.6 °F 30.3 °F 30.07 in NNW 1.0 mph 8.0 mph 95% 0.00 in WeatherCatV3.03B8 W/m2
23:09 31.6 °F 30.3 °F 30.07 in North 1.0 mph 4.0 mph 95% 0.00 in WeatherCatV3.03B8 W/m2
23:14 31.8 °F 30.3 °F 30.09 in North 1.0 mph 5.0 mph 94% 0.00 in WeatherCatV3.03B8 W/m2
23:19 31.8 °F 30.3 °F 30.09 in Calm   3.0 mph 94% 0.00 in WeatherCatV3.03B8 W/m2
23:24 31.8 °F 30.0 °F 30.09 in Calm   2.0 mph 93% 0.00 in WeatherCatV3.03B8 W/m2
23:29 31.8 °F 30.0 °F 30.11 in NNE 5.0 mph 5.0 mph 93% 0.00 in WeatherCatV3.03B8 W/m2
23:34 31.6 °F 29.6 °F 30.11 in Calm   3.0 mph 92% 0.00 in WeatherCatV3.03B8 W/m2
23:39 31.6 °F 29.6 °F 30.11 in North 2.0 mph 5.0 mph 92% 0.00 in WeatherCatV3.03B8 W/m2
23:44 31.6 °F 29.3 °F 30.11 in North 1.0 mph 3.0 mph 91% 0.00 in WeatherCatV3.03B8 W/m2
23:49 31.5 °F 29.2 °F 30.11 in Calm   2.0 mph 91% 0.00 in WeatherCatV3.03B8 W/m2
23:54 31.5 °F 28.9 °F 30.11 in NNE 3.0 mph 4.0 mph 90% 0.00 in WeatherCatV3.03B8 W/m2
23:59 31.3 °F 28.7 °F 30.09 in NNE 6.0 mph 7.0 mph 90% 0.00 in WeatherCatV3.03B8 W/m2
Bellevue, Nebraska, USA
Compliments of Weather Underground - 3.25 mb